Terminal Aerodrome Forecast
Issued by NWS

Home | Current Version | Previous Version | Text Only | Print | Product List | Glossary On
Versions: 1 2 3 4 5 6 7 8 9 10 11 12 13 14 15 16
000
FTUS45 KFGZ 251700
TAFSEZ
TAF
KSEZ 251729Z 2518/2618 29012G20KT P6SM SCT014 BKN020 BKN040
      TEMPO 2518/2521 5SM -SHRA BKN014
     FM252100 23014G28KT P6SM VCSH BKN012 BKN020 OVC040
      TEMPO 2521/2601 4SM -SHRA BR BKN010
     FM260100 23010G17KT 4SM -SHRA BR SCT006 OVC010
     FM260800 25010KT 3SM -SHRA BR OVC006=

USA.gov is the U.S. government's official web portal to all federal, state and local government web resources and services.